sensor_id;sensor_type;location;lat;lon;timestamp;temperature;humidity
19088;DHT22;9676;50.916;13.352;2022-08-11T00:00:34;20.80;38.40
19088;DHT22;9676;50.916;13.352;2022-08-11T00:03:26;20.70;38.30
19088;DHT22;9676;50.916;13.352;2022-08-11T00:06:34;20.70;38.50
19088;DHT22;9676;50.916;13.352;2022-08-11T00:09:32;20.70;38.60
19088;DHT22;9676;50.916;13.352;2022-08-11T00:12:27;20.60;38.80
19088;DHT22;9676;50.916;13.352;2022-08-11T00:15:17;20.60;38.60
19088;DHT22;9676;50.916;13.352;2022-08-11T00:18:08;20.60;38.70
19088;DHT22;9676;50.916;13.352;2022-08-11T00:20:59;20.60;38.70
19088;DHT22;9676;50.916;13.352;2022-08-11T00:23:54;20.60;38.90
19088;DHT22;9676;50.916;13.352;2022-08-11T00:26:49;20.50;39.10
19088;DHT22;9676;50.916;13.352;2022-08-11T00:29:40;20.50;39.20
19088;DHT22;9676;50.916;13.352;2022-08-11T00:32:43;20.50;39.20
19088;DHT22;9676;50.916;13.352;2022-08-11T00:35:34;20.50;39.20
19088;DHT22;9676;50.916;13.352;2022-08-11T00:38:46;20.50;39.20
19088;DHT22;9676;50.916;13.352;2022-08-11T00:41:41;20.50;39.30
19088;DHT22;9676;50.916;13.352;2022-08-11T00:44:51;20.50;39.50
19088;DHT22;9676;50.916;13.352;2022-08-11T00:47:58;20.40;39.40
19088;DHT22;9676;50.916;13.352;2022-08-11T00:51:03;20.40;39.60
19088;DHT22;9676;50.916;13.352;2022-08-11T00:54:05;20.40;39.80
19088;DHT22;9676;50.916;13.352;2022-08-11T00:57:21;20.40;39.70
19088;DHT22;9676;50.916;13.352;2022-08-11T01:00:33;20.40;40.20
19088;DHT22;9676;50.916;13.352;2022-08-11T01:04:08;20.40;39.60
19088;DHT22;9676;50.916;13.352;2022-08-11T01:07:33;20.40;40.20
19088;DHT22;9676;50.916;13.352;2022-08-11T01:11:03;20.40;40.30
19088;DHT22;9676;50.916;13.352;2022-08-11T01:18:09;20.40;40.30
19088;DHT22;9676;50.916;13.352;2022-08-11T01:22:01;20.30;40.40
19088;DHT22;9676;50.916;13.352;2022-08-11T01:25:41;20.30;40.40
19088;DHT22;9676;50.916;13.352;2022-08-11T01:32:50;20.20;40.10
19088;DHT22;9676;50.916;13.352;2022-08-11T01:36:49;20.20;40.40
19088;DHT22;9676;50.916;13.352;2022-08-11T01:40:29;20.20;40.50
19088;DHT22;9676;50.916;13.352;2022-08-11T01:44:03;20.20;40.70
19088;DHT22;9676;50.916;13.352;2022-08-11T01:47:30;20.10;40.60
19088;DHT22;9676;50.916;13.352;2022-08-11T01:51:03;20.10;40.50
19088;DHT22;9676;50.916;13.352;2022-08-11T01:54:11;20.10;40.60
19088;DHT22;9676;50.916;13.352;2022-08-11T01:57:16;20.10;40.70
19088;DHT22;9676;50.916;13.352;2022-08-11T02:00:18;20.00;40.70
19088;DHT22;9676;50.916;13.352;2022-08-11T02:03:13;20.00;40.60
19088;DHT22;9676;50.916;13.352;2022-08-11T02:06:13;20.00;40.70
19088;DHT22;9676;50.916;13.352;2022-08-11T02:09:37;20.00;41.10
19088;DHT22;9676;50.916;13.352;2022-08-11T02:12:45;19.90;40.90
19088;DHT22;9676;50.916;13.352;2022-08-11T02:15:44;19.90;40.90
19088;DHT22;9676;50.916;13.352;2022-08-11T02:18:38;19.90;41.00
19088;DHT22;9676;50.916;13.352;2022-08-11T02:21:50;19.90;41.00
19088;DHT22;9676;50.916;13.352;2022-08-11T02:25:05;19.80;41.00
19088;DHT22;9676;50.916;13.352;2022-08-11T02:28:02;19.80;41.10
19088;DHT22;9676;50.916;13.352;2022-08-11T02:31:01;19.80;41.20
19088;DHT22;9676;50.916;13.352;2022-08-11T02:34:53;19.80;41.40
19088;DHT22;9676;50.916;13.352;2022-08-11T02:37:57;19.70;41.20
19088;DHT22;9676;50.916;13.352;2022-08-11T02:41:02;19.70;41.30
19088;DHT22;9676;50.916;13.352;2022-08-11T02:44:27;19.70;41.50
19088;DHT22;9676;50.916;13.352;2022-08-11T02:47:33;19.60;41.40
19088;DHT22;9676;50.916;13.352;2022-08-11T02:50:30;19.70;41.70
19088;DHT22;9676;50.916;13.352;2022-08-11T02:53:27;19.60;41.60
19088;DHT22;9676;50.916;13.352;2022-08-11T02:56:31;19.60;41.60
19088;DHT22;9676;50.916;13.352;2022-08-11T02:59:44;19.60;41.90
19088;DHT22;9676;50.916;13.352;2022-08-11T03:02:52;19.60;42.00
19088;DHT22;9676;50.916;13.352;2022-08-11T03:05:57;19.60;42.00
19088;DHT22;9676;50.916;13.352;2022-08-11T03:08:58;19.50;41.90
19088;DHT22;9676;50.916;13.352;2022-08-11T03:11:59;19.50;41.90
19088;DHT22;9676;50.916;13.352;2022-08-11T03:15:15;19.50;42.00
19088;DHT22;9676;50.916;13.352;2022-08-11T03:18:30;19.50;42.00
19088;DHT22;9676;50.916;13.352;2022-08-11T03:21:27;19.40;41.90
19088;DHT22;9676;50.916;13.352;2022-08-11T03:24:52;19.40;42.20
19088;DHT22;9676;50.916;13.352;2022-08-11T03:27:51;19.40;42.40
19088;DHT22;9676;50.916;13.352;2022-08-11T03:30:53;19.40;42.30
19088;DHT22;9676;50.916;13.352;2022-08-11T03:33:53;19.40;42.40
19088;DHT22;9676;50.916;13.352;2022-08-11T03:37:25;19.40;42.30
19088;DHT22;9676;50.916;13.352;2022-08-11T03:40:49;19.40;42.90
19088;DHT22;9676;50.916;13.352;2022-08-11T03:44:51;19.40;42.70
19088;DHT22;9676;50.916;13.352;2022-08-11T03:48:09;19.30;42.80
19088;DHT22;9676;50.916;13.352;2022-08-11T03:51:12;19.30;42.70
19088;DHT22;9676;50.916;13.352;2022-08-11T03:54:13;19.30;42.70
19088;DHT22;9676;50.916;13.352;2022-08-11T03:57:44;19.30;42.70
19088;DHT22;9676;50.916;13.352;2022-08-11T04:12:12;19.30;42.90
19088;DHT22;9676;50.916;13.352;2022-08-11T04:15:38;19.30;43.30
19088;DHT22;9676;50.916;13.352;2022-08-11T04:30:28;19.30;43.40
19088;DHT22;9676;50.916;13.352;2022-08-11T04:33:53;19.40;43.10
19088;DHT22;9676;50.916;13.352;2022-08-11T04:37:11;19.40;43.70
19088;DHT22;9676;50.916;13.352;2022-08-11T04:44:56;19.60;44.50
19088;DHT22;9676;50.916;13.352;2022-08-11T04:48:20;20.00;45.40
19088;DHT22;9676;50.916;13.352;2022-08-11T04:51:43;20.50;46.10
19088;DHT22;9676;50.916;13.352;2022-08-11T04:55:21;21.00;46.30
19088;DHT22;9676;50.916;13.352;2022-08-11T04:58:51;21.50;45.90
19088;DHT22;9676;50.916;13.352;2022-08-11T05:09:37;22.20;44.20
19088;DHT22;9676;50.916;13.352;2022-08-11T05:12:46;22.40;44.80
19088;DHT22;9676;50.916;13.352;2022-08-11T05:15:45;22.80;45.40
19088;DHT22;9676;50.916;13.352;2022-08-11T05:18:55;23.20;46.10
19088;DHT22;9676;50.916;13.352;2022-08-11T05:22:07;23.70;46.60
19088;DHT22;9676;50.916;13.352;2022-08-11T05:25:21;24.40;47.00
19088;DHT22;9676;50.916;13.352;2022-08-11T05:28:55;25.00;47.10
19088;DHT22;9676;50.916;13.352;2022-08-11T05:32:12;25.80;47.00
19088;DHT22;9676;50.916;13.352;2022-08-11T05:35:26;26.50;46.80
19088;DHT22;9676;50.916;13.352;2022-08-11T05:38:39;27.30;46.70
19088;DHT22;9676;50.916;13.352;2022-08-11T05:41:56;28.00;46.50
19088;DHT22;9676;50.916;13.352;2022-08-11T05:45:18;28.70;46.10
19088;DHT22;9676;50.916;13.352;2022-08-11T05:48:46;29.40;45.50
19088;DHT22;9676;50.916;13.352;2022-08-11T05:51:54;30.10;45.10
19088;DHT22;9676;50.916;13.352;2022-08-11T05:55:04;30.70;44.70
19088;DHT22;9676;50.916;13.352;2022-08-11T05:58:12;31.30;44.50
19088;DHT22;9676;50.916;13.352;2022-08-11T06:01:04;31.80;44.10
19088;DHT22;9676;50.916;13.352;2022-08-11T06:03:56;32.30;43.60
19088;DHT22;9676;50.916;13.352;2022-08-11T06:07:05;32.80;43.20
19088;DHT22;9676;50.916;13.352;2022-08-11T06:09:57;33.40;42.90
19088;DHT22;9676;50.916;13.352;2022-08-11T06:12:51;33.90;42.40
19088;DHT22;9676;50.916;13.352;2022-08-11T06:15:45;34.30;41.60
19088;DHT22;9676;50.916;13.352;2022-08-11T06:18:36;34.60;41.30
19088;DHT22;9676;50.916;13.352;2022-08-11T06:21:26;35.00;40.90
19088;DHT22;9676;50.916;13.352;2022-08-11T06:24:16;35.30;40.60
19088;DHT22;9676;50.916;13.352;2022-08-11T06:27:07;35.50;40.20
19088;DHT22;9676;50.916;13.352;2022-08-11T06:30:01;35.90;40.00
19088;DHT22;9676;50.916;13.352;2022-08-11T06:33:00;36.10;39.70
19088;DHT22;9676;50.916;13.352;2022-08-11T06:36:02;36.50;39.50
19088;DHT22;9676;50.916;13.352;2022-08-11T06:39:01;36.80;38.60
19088;DHT22;9676;50.916;13.352;2022-08-11T06:42:04;37.20;38.60
19088;DHT22;9676;50.916;13.352;2022-08-11T06:45:06;37.60;38.50
19088;DHT22;9676;50.916;13.352;2022-08-11T06:48:15;38.10;38.40
19088;DHT22;9676;50.916;13.352;2022-08-11T06:51:08;38.50;37.70
19088;DHT22;9676;50.916;13.352;2022-08-11T06:54:01;38.90;37.60
19088;DHT22;9676;50.916;13.352;2022-08-11T06:56:53;39.40;37.60
19088;DHT22;9676;50.916;13.352;2022-08-11T07:00:17;39.70;37.10
19088;DHT22;9676;50.916;13.352;2022-08-11T07:03:17;40.20;36.80
19088;DHT22;9676;50.916;13.352;2022-08-11T07:06:20;40.60;36.30
19088;DHT22;9676;50.916;13.352;2022-08-11T07:09:58;40.90;35.00
19088;DHT22;9676;50.916;13.352;2022-08-11T07:13:17;41.30;34.50
19088;DHT22;9676;50.916;13.352;2022-08-11T07:16:32;41.60;34.60
19088;DHT22;9676;50.916;13.352;2022-08-11T07:19:28;41.90;34.30
19088;DHT22;9676;50.916;13.352;2022-08-11T07:22:37;42.00;33.80
19088;DHT22;9676;50.916;13.352;2022-08-11T07:25:49;42.10;33.10
19088;DHT22;9676;50.916;13.352;2022-08-11T07:28:58;42.20;32.80
19088;DHT22;9676;50.916;13.352;2022-08-11T07:31:50;42.40;32.80
19088;DHT22;9676;50.916;13.352;2022-08-11T07:34:46;42.40;32.40
19088;DHT22;9676;50.916;13.352;2022-08-11T07:37:41;42.60;32.70
19088;DHT22;9676;50.916;13.352;2022-08-11T07:40:32;42.80;31.60
19088;DHT22;9676;50.916;13.352;2022-08-11T07:43:22;42.90;31.40
19088;DHT22;9676;50.916;13.352;2022-08-11T07:46:12;43.10;31.30
19088;DHT22;9676;50.916;13.352;2022-08-11T07:49:19;43.20;30.80
19088;DHT22;9676;50.916;13.352;2022-08-11T07:52:29;43.20;30.20
19088;DHT22;9676;50.916;13.352;2022-08-11T07:55:23;43.10;29.90
19088;DHT22;9676;50.916;13.352;2022-08-11T07:58:35;43.10;29.70
19088;DHT22;9676;50.916;13.352;2022-08-11T08:01:51;43.00;29.50
19088;DHT22;9676;50.916;13.352;2022-08-11T08:04:58;42.90;29.40
19088;DHT22;9676;50.916;13.352;2022-08-11T08:08:06;42.90;29.10
19088;DHT22;9676;50.916;13.352;2022-08-11T08:11:15;42.70;28.90
19088;DHT22;9676;50.916;13.352;2022-08-11T08:14:25;42.60;28.80
19088;DHT22;9676;50.916;13.352;2022-08-11T08:17:33;42.50;29.10
19088;DHT22;9676;50.916;13.352;2022-08-11T08:20:59;42.60;29.20
19088;DHT22;9676;50.916;13.352;2022-08-11T08:23:59;42.70;29.30
19088;DHT22;9676;50.916;13.352;2022-08-11T08:26:50;43.00;29.10
19088;DHT22;9676;50.916;13.352;2022-08-11T08:29:50;43.10;28.60
19088;DHT22;9676;50.916;13.352;2022-08-11T08:32:57;43.30;28.50
19088;DHT22;9676;50.916;13.352;2022-08-11T08:35:50;43.20;28.20
19088;DHT22;9676;50.916;13.352;2022-08-11T08:38:58;43.30;28.00
19088;DHT22;9676;50.916;13.352;2022-08-11T08:41:52;43.30;27.60
19088;DHT22;9676;50.916;13.352;2022-08-11T08:44:46;43.30;27.40
19088;DHT22;9676;50.916;13.352;2022-08-11T08:47:41;43.10;27.20
19088;DHT22;9676;50.916;13.352;2022-08-11T08:50:34;42.90;27.10
19088;DHT22;9676;50.916;13.352;2022-08-11T08:53:51;42.70;26.90
19088;DHT22;9676;50.916;13.352;2022-08-11T08:56:46;42.40;26.50
19088;DHT22;9676;50.916;13.352;2022-08-11T08:59:41;42.10;26.90
19088;DHT22;9676;50.916;13.352;2022-08-11T09:02:36;41.90;26.70
19088;DHT22;9676;50.916;13.352;2022-08-11T09:05:26;41.60;26.90
19088;DHT22;9676;50.916;13.352;2022-08-11T09:08:17;41.50;27.00
19088;DHT22;9676;50.916;13.352;2022-08-11T09:11:07;41.40;26.70
19088;DHT22;9676;50.916;13.352;2022-08-11T09:14:17;41.20;26.40
19088;DHT22;9676;50.916;13.352;2022-08-11T09:17:08;40.90;26.60
19088;DHT22;9676;50.916;13.352;2022-08-11T09:20:00;40.80;26.50
19088;DHT22;9676;50.916;13.352;2022-08-11T09:22:56;40.70;26.70
19088;DHT22;9676;50.916;13.352;2022-08-11T09:26:25;40.70;26.70
19088;DHT22;9676;50.916;13.352;2022-08-11T09:29:33;40.70;27.00
19088;DHT22;9676;50.916;13.352;2022-08-11T09:32:24;40.80;27.10
19088;DHT22;9676;50.916;13.352;2022-08-11T09:35:16;40.90;26.80
19088;DHT22;9676;50.916;13.352;2022-08-11T09:38:06;40.90;26.80
19088;DHT22;9676;50.916;13.352;2022-08-11T09:41:16;41.00;26.80
19088;DHT22;9676;50.916;13.352;2022-08-11T09:44:21;41.00;27.00
19088;DHT22;9676;50.916;13.352;2022-08-11T09:47:38;41.20;26.80
19088;DHT22;9676;50.916;13.352;2022-08-11T09:50:28;41.30;26.50
19088;DHT22;9676;50.916;13.352;2022-08-11T09:53:21;41.30;26.60
19088;DHT22;9676;50.916;13.352;2022-08-11T09:56:25;41.40;26.80
19088;DHT22;9676;50.916;13.352;2022-08-11T09:59:32;41.60;26.70
19088;DHT22;9676;50.916;13.352;2022-08-11T10:02:25;41.60;26.20
19088;DHT22;9676;50.916;13.352;2022-08-11T10:05:18;41.60;26.10
19088;DHT22;9676;50.916;13.352;2022-08-11T10:08:27;41.60;26.30
19088;DHT22;9676;50.916;13.352;2022-08-11T10:11:22;41.70;26.60
19088;DHT22;9676;50.916;13.352;2022-08-11T10:14:14;41.90;26.70
19088;DHT22;9676;50.916;13.352;2022-08-11T10:17:29;42.10;26.60
19088;DHT22;9676;50.916;13.352;2022-08-11T10:20:22;42.30;26.20
19088;DHT22;9676;50.916;13.352;2022-08-11T10:23:12;42.40;26.10
19088;DHT22;9676;50.916;13.352;2022-08-11T10:26:20;42.40;25.60
19088;DHT22;9676;50.916;13.352;2022-08-11T10:29:32;42.20;25.80
19088;DHT22;9676;50.916;13.352;2022-08-11T10:32:44;42.30;26.00
19088;DHT22;9676;50.916;13.352;2022-08-11T10:35:57;42.40;26.20
19088;DHT22;9676;50.916;13.352;2022-08-11T10:38:48;42.70;26.00
19088;DHT22;9676;50.916;13.352;2022-08-11T10:41:39;42.90;26.00
19088;DHT22;9676;50.916;13.352;2022-08-11T10:44:58;43.00;25.90
19088;DHT22;9676;50.916;13.352;2022-08-11T10:47:49;43.40;25.90
19088;DHT22;9676;50.916;13.352;2022-08-11T10:50:39;43.60;25.70
19088;DHT22;9676;50.916;13.352;2022-08-11T10:53:50;43.70;25.30
19088;DHT22;9676;50.916;13.352;2022-08-11T10:56:59;43.80;25.00
19088;DHT22;9676;50.916;13.352;2022-08-11T11:00:09;43.80;24.60
19088;DHT22;9676;50.916;13.352;2022-08-11T11:03:03;43.60;24.20
19088;DHT22;9676;50.916;13.352;2022-08-11T11:06:21;43.30;24.30
19088;DHT22;9676;50.916;13.352;2022-08-11T11:09:19;43.00;24.30
19088;DHT22;9676;50.916;13.352;2022-08-11T11:12:17;42.70;24.20
19088;DHT22;9676;50.916;13.352;2022-08-11T11:15:28;42.40;24.20
19088;DHT22;9676;50.916;13.352;2022-08-11T11:18:37;41.90;24.10
19088;DHT22;9676;50.916;13.352;2022-08-11T11:21:27;41.50;24.10
19088;DHT22;9676;50.916;13.352;2022-08-11T11:24:24;41.10;24.10
19088;DHT22;9676;50.916;13.352;2022-08-11T11:27:31;40.70;24.10
19088;DHT22;9676;50.916;13.352;2022-08-11T11:30:36;40.20;24.00
19088;DHT22;9676;50.916;13.352;2022-08-11T11:33:48;39.80;24.00
19088;DHT22;9676;50.916;13.352;2022-08-11T11:37:00;39.40;24.00
19088;DHT22;9676;50.916;13.352;2022-08-11T11:39:52;38.90;24.00
19088;DHT22;9676;50.916;13.352;2022-08-11T11:42:45;38.50;24.00
19088;DHT22;9676;50.916;13.352;2022-08-11T11:45:36;38.10;24.00
19088;DHT22;9676;50.916;13.352;2022-08-11T11:48:25;37.80;24.10
19088;DHT22;9676;50.916;13.352;2022-08-11T11:51:15;37.50;24.20
19088;DHT22;9676;50.916;13.352;2022-08-11T11:54:05;37.10;24.20
19088;DHT22;9676;50.916;13.352;2022-08-11T11:57:00;36.80;24.30
19088;DHT22;9676;50.916;13.352;2022-08-11T12:00:14;36.50;24.30
19088;DHT22;9676;50.916;13.352;2022-08-11T12:03:23;36.10;24.40
19088;DHT22;9676;50.916;13.352;2022-08-11T12:06:13;35.90;24.60
19088;DHT22;9676;50.916;13.352;2022-08-11T12:09:05;35.60;24.70
19088;DHT22;9676;50.916;13.352;2022-08-11T12:11:55;35.50;24.80
19088;DHT22;9676;50.916;13.352;2022-08-11T12:15:04;35.30;24.80
19088;DHT22;9676;50.916;13.352;2022-08-11T12:17:55;35.10;24.90
19088;DHT22;9676;50.916;13.352;2022-08-11T12:20:45;35.00;24.90
19088;DHT22;9676;50.916;13.352;2022-08-11T12:23:37;34.80;25.00
19088;DHT22;9676;50.916;13.352;2022-08-11T12:26:50;34.70;25.00
19088;DHT22;9676;50.916;13.352;2022-08-11T12:30:06;34.60;25.10
19088;DHT22;9676;50.916;13.352;2022-08-11T12:32:57;34.40;25.00
19088;DHT22;9676;50.916;13.352;2022-08-11T12:35:50;34.20;25.10
19088;DHT22;9676;50.916;13.352;2022-08-11T12:38:49;34.10;25.10
19088;DHT22;9676;50.916;13.352;2022-08-11T12:41:41;33.90;25.00
19088;DHT22;9676;50.916;13.352;2022-08-11T12:44:48;33.70;25.10
19088;DHT22;9676;50.916;13.352;2022-08-11T12:48:16;33.60;25.30
19088;DHT22;9676;50.916;13.352;2022-08-11T12:51:48;33.50;25.40
19088;DHT22;9676;50.916;13.352;2022-08-11T12:55:05;33.40;25.50
19088;DHT22;9676;50.916;13.352;2022-08-11T12:58:00;33.40;25.60
19088;DHT22;9676;50.916;13.352;2022-08-11T13:01:04;33.30;25.50
19088;DHT22;9676;50.916;13.352;2022-08-11T13:04:14;33.20;25.50
19088;DHT22;9676;50.916;13.352;2022-08-11T13:07:23;33.10;25.50
19088;DHT22;9676;50.916;13.352;2022-08-11T13:10:33;33.00;25.60
19088;DHT22;9676;50.916;13.352;2022-08-11T13:13:41;33.00;25.70
19088;DHT22;9676;50.916;13.352;2022-08-11T13:16:44;33.10;25.70
19088;DHT22;9676;50.916;13.352;2022-08-11T13:19:53;33.20;25.70
19088;DHT22;9676;50.916;13.352;2022-08-11T13:22:44;33.20;25.50
19088;DHT22;9676;50.916;13.352;2022-08-11T13:25:35;33.10;25.40
19088;DHT22;9676;50.916;13.352;2022-08-11T13:28:26;33.10;25.30
19088;DHT22;9676;50.916;13.352;2022-08-11T13:31:16;33.00;25.30
19088;DHT22;9676;50.916;13.352;2022-08-11T13:34:08;32.90;25.10
19088;DHT22;9676;50.916;13.352;2022-08-11T13:37:01;32.70;25.10
19088;DHT22;9676;50.916;13.352;2022-08-11T13:39:52;32.60;25.10
19088;DHT22;9676;50.916;13.352;2022-08-11T13:42:43;32.50;25.10
19088;DHT22;9676;50.916;13.352;2022-08-11T13:45:33;32.40;25.10
19088;DHT22;9676;50.916;13.352;2022-08-11T13:48:23;32.30;24.90
19088;DHT22;9676;50.916;13.352;2022-08-11T13:51:13;32.20;24.90
19088;DHT22;9676;50.916;13.352;2022-08-11T13:54:26;32.00;24.90
19088;DHT22;9676;50.916;13.352;2022-08-11T13:57:18;31.90;24.90
19088;DHT22;9676;50.916;13.352;2022-08-11T14:00:29;31.70;24.80
19088;DHT22;9676;50.916;13.352;2022-08-11T14:03:24;31.60;24.80
19088;DHT22;9676;50.916;13.352;2022-08-11T14:06:35;31.40;24.70
19088;DHT22;9676;50.916;13.352;2022-08-11T14:09:35;31.30;24.70
19088;DHT22;9676;50.916;13.352;2022-08-11T14:12:28;31.20;24.80
19088;DHT22;9676;50.916;13.352;2022-08-11T14:15:35;31.10;24.90
19088;DHT22;9676;50.916;13.352;2022-08-11T14:18:31;30.90;24.80
19088;DHT22;9676;50.916;13.352;2022-08-11T14:21:23;30.90;24.90
19088;DHT22;9676;50.916;13.352;2022-08-11T14:24:34;30.80;25.00
19088;DHT22;9676;50.916;13.352;2022-08-11T14:27:25;30.70;25.00
19088;DHT22;9676;50.916;13.352;2022-08-11T14:30:38;30.70;25.10
19088;DHT22;9676;50.916;13.352;2022-08-11T14:33:49;30.70;25.10
19088;DHT22;9676;50.916;13.352;2022-08-11T14:36:51;30.70;25.20
19088;DHT22;9676;50.916;13.352;2022-08-11T14:39:45;30.60;25.20
19088;DHT22;9676;50.916;13.352;2022-08-11T14:42:36;30.60;25.20
19088;DHT22;9676;50.916;13.352;2022-08-11T14:45:44;30.60;25.30
19088;DHT22;9676;50.916;13.352;2022-08-11T14:48:51;30.60;25.30
19088;DHT22;9676;50.916;13.352;2022-08-11T14:51:41;30.50;25.30
19088;DHT22;9676;50.916;13.352;2022-08-11T14:54:34;30.40;25.30
19088;DHT22;9676;50.916;13.352;2022-08-11T14:57:43;30.40;25.40
19088;DHT22;9676;50.916;13.352;2022-08-11T15:00:43;30.40;25.50
19088;DHT22;9676;50.916;13.352;2022-08-11T15:03:33;30.40;25.50
19088;DHT22;9676;50.916;13.352;2022-08-11T15:06:21;30.30;25.60
19088;DHT22;9676;50.916;13.352;2022-08-11T15:09:15;30.30;25.70
19088;DHT22;9676;50.916;13.352;2022-08-11T15:12:06;30.40;25.70
19088;DHT22;9676;50.916;13.352;2022-08-11T15:15:21;30.30;25.70
19088;DHT22;9676;50.916;13.352;2022-08-11T15:18:30;30.30;25.80
19088;DHT22;9676;50.916;13.352;2022-08-11T15:21:20;30.30;25.80
19088;DHT22;9676;50.916;13.352;2022-08-11T15:24:27;30.30;25.80
19088;DHT22;9676;50.916;13.352;2022-08-11T15:27:19;30.20;25.90
19088;DHT22;9676;50.916;13.352;2022-08-11T15:30:30;30.20;26.00
19088;DHT22;9676;50.916;13.352;2022-08-11T15:33:38;30.10;26.00
19088;DHT22;9676;50.916;13.352;2022-08-11T15:36:48;30.10;25.90
19088;DHT22;9676;50.916;13.352;2022-08-11T15:40:03;30.10;26.00
19088;DHT22;9676;50.916;13.352;2022-08-11T15:43:22;30.00;26.00
19088;DHT22;9676;50.916;13.352;2022-08-11T15:46:40;30.00;26.00
19088;DHT22;9676;50.916;13.352;2022-08-11T15:49:33;29.90;26.70
19088;DHT22;9676;50.916;13.352;2022-08-11T15:52:52;29.90;26.20
19088;DHT22;9676;50.916;13.352;2022-08-11T15:55:46;29.80;26.20
19088;DHT22;9676;50.916;13.352;2022-08-11T15:58:40;29.80;26.40
19088;DHT22;9676;50.916;13.352;2022-08-11T16:02:14;29.80;26.50
19088;DHT22;9676;50.916;13.352;2022-08-11T16:05:22;29.70;26.50
19088;DHT22;9676;50.916;13.352;2022-08-11T16:08:34;29.70;26.60
19088;DHT22;9676;50.916;13.352;2022-08-11T16:11:24;29.60;26.60
19088;DHT22;9676;50.916;13.352;2022-08-11T16:14:15;29.60;26.70
19088;DHT22;9676;50.916;13.352;2022-08-11T16:17:26;29.50;26.70
19088;DHT22;9676;50.916;13.352;2022-08-11T16:20:20;29.50;26.80
19088;DHT22;9676;50.916;13.352;2022-08-11T16:23:13;29.40;26.80
19088;DHT22;9676;50.916;13.352;2022-08-11T16:26:05;29.40;26.90
19088;DHT22;9676;50.916;13.352;2022-08-11T16:29:17;29.30;26.90
19088;DHT22;9676;50.916;13.352;2022-08-11T16:32:12;29.30;26.90
19088;DHT22;9676;50.916;13.352;2022-08-11T16:35:08;29.20;26.90
19088;DHT22;9676;50.916;13.352;2022-08-11T16:38:19;29.20;27.00
19088;DHT22;9676;50.916;13.352;2022-08-11T16:41:24;29.10;27.00
19088;DHT22;9676;50.916;13.352;2022-08-11T16:44:34;29.10;27.10
19088;DHT22;9676;50.916;13.352;2022-08-11T16:47:43;29.00;27.60
19088;DHT22;9676;50.916;13.352;2022-08-11T16:50:52;29.00;27.20
19088;DHT22;9676;50.916;13.352;2022-08-11T16:53:43;28.90;27.10
19088;DHT22;9676;50.916;13.352;2022-08-11T16:56:53;28.90;27.10
19088;DHT22;9676;50.916;13.352;2022-08-11T16:59:42;28.80;27.10
19088;DHT22;9676;50.916;13.352;2022-08-11T17:02:34;28.80;27.20
19088;DHT22;9676;50.916;13.352;2022-08-11T17:05:47;28.70;27.20
19088;DHT22;9676;50.916;13.352;2022-08-11T17:09:02;28.70;27.30
19088;DHT22;9676;50.916;13.352;2022-08-11T17:12:10;28.60;27.30
19088;DHT22;9676;50.916;13.352;2022-08-11T17:15:20;28.50;27.30
19088;DHT22;9676;50.916;13.352;2022-08-11T17:18:29;28.50;27.80
19088;DHT22;9676;50.916;13.352;2022-08-11T17:21:36;28.50;27.40
19088;DHT22;9676;50.916;13.352;2022-08-11T17:24:50;28.40;27.40
19088;DHT22;9676;50.916;13.352;2022-08-11T17:27:41;28.40;27.50
19088;DHT22;9676;50.916;13.352;2022-08-11T17:30:32;28.30;27.60
19088;DHT22;9676;50.916;13.352;2022-08-11T17:33:45;28.30;27.60
19088;DHT22;9676;50.916;13.352;2022-08-11T17:36:53;28.20;27.60
19088;DHT22;9676;50.916;13.352;2022-08-11T17:39:43;28.20;27.70
19088;DHT22;9676;50.916;13.352;2022-08-11T17:42:36;28.10;27.70
19088;DHT22;9676;50.916;13.352;2022-08-11T17:45:45;28.00;27.80
19088;DHT22;9676;50.916;13.352;2022-08-11T17:48:55;28.00;27.80
19088;DHT22;9676;50.916;13.352;2022-08-11T17:51:48;27.90;27.80
19088;DHT22;9676;50.916;13.352;2022-08-11T17:54:56;27.90;27.90
19088;DHT22;9676;50.916;13.352;2022-08-11T17:58:25;27.80;27.90
19088;DHT22;9676;50.916;13.352;2022-08-11T18:01:33;27.80;27.90
19088;DHT22;9676;50.916;13.352;2022-08-11T18:04:27;27.70;28.00
19088;DHT22;9676;50.916;13.352;2022-08-11T18:07:18;27.60;28.00
19088;DHT22;9676;50.916;13.352;2022-08-11T18:10:27;27.50;28.00
19088;DHT22;9676;50.916;13.352;2022-08-11T18:13:37;27.50;28.00
19088;DHT22;9676;50.916;13.352;2022-08-11T18:16:46;27.40;28.00
19088;DHT22;9676;50.916;13.352;2022-08-11T18:19:54;27.30;28.10
19088;DHT22;9676;50.916;13.352;2022-08-11T18:23:03;27.20;28.10
19088;DHT22;9676;50.916;13.352;2022-08-11T18:26:32;27.20;28.20
19088;DHT22;9676;50.916;13.352;2022-08-11T18:29:42;27.10;28.20
19088;DHT22;9676;50.916;13.352;2022-08-11T18:32:52;27.00;28.30
19088;DHT22;9676;50.916;13.352;2022-08-11T18:36:21;26.90;28.40
19088;DHT22;9676;50.916;13.352;2022-08-11T18:39:33;26.80;28.40
19088;DHT22;9676;50.916;13.352;2022-08-11T18:42:45;26.70;28.40
19088;DHT22;9676;50.916;13.352;2022-08-11T18:45:58;26.60;28.50
19088;DHT22;9676;50.916;13.352;2022-08-11T18:49:10;26.50;28.50
19088;DHT22;9676;50.916;13.352;2022-08-11T18:52:40;26.50;28.60
19088;DHT22;9676;50.916;13.352;2022-08-11T18:55:48;26.30;28.60
19088;DHT22;9676;50.916;13.352;2022-08-11T18:58:58;26.30;28.60
19088;DHT22;9676;50.916;13.352;2022-08-11T19:02:08;26.20;28.70
19088;DHT22;9676;50.916;13.352;2022-08-11T19:05:17;26.10;28.80
19088;DHT22;9676;50.916;13.352;2022-08-11T19:08:51;26.00;28.80
19088;DHT22;9676;50.916;13.352;2022-08-11T19:12:01;25.90;28.90
19088;DHT22;9676;50.916;13.352;2022-08-11T19:15:09;25.80;28.90
19088;DHT22;9676;50.916;13.352;2022-08-11T19:18:20;25.80;29.00
19088;DHT22;9676;50.916;13.352;2022-08-11T19:21:29;25.70;29.10
19088;DHT22;9676;50.916;13.352;2022-08-11T19:24:38;25.60;29.10
19088;DHT22;9676;50.916;13.352;2022-08-11T19:27:47;25.50;29.10
19088;DHT22;9676;50.916;13.352;2022-08-11T19:30:55;25.40;29.60
19088;DHT22;9676;50.916;13.352;2022-08-11T19:34:04;25.40;29.20
19088;DHT22;9676;50.916;13.352;2022-08-11T19:37:12;25.30;29.30
19088;DHT22;9676;50.916;13.352;2022-08-11T19:40:19;25.30;29.40
19088;DHT22;9676;50.916;13.352;2022-08-11T19:43:28;25.20;29.40
19088;DHT22;9676;50.916;13.352;2022-08-11T19:46:37;25.20;29.50
19088;DHT22;9676;50.916;13.352;2022-08-11T19:49:47;25.10;29.40
19088;DHT22;9676;50.916;13.352;2022-08-11T19:52:55;25.00;29.50
19088;DHT22;9676;50.916;13.352;2022-08-11T19:56:05;25.00;29.50
19088;DHT22;9676;50.916;13.352;2022-08-11T19:59:12;24.90;29.50
19088;DHT22;9676;50.916;13.352;2022-08-11T20:02:20;24.80;29.60
19088;DHT22;9676;50.916;13.352;2022-08-11T20:05:29;24.80;29.60
19088;DHT22;9676;50.916;13.352;2022-08-11T20:08:48;24.70;29.70
19088;DHT22;9676;50.916;13.352;2022-08-11T20:11:58;24.60;29.70